sensor_id;sensor_type;location;lat;lon;timestamp;pressure;altitude;pressure_sealevel;temperature;humidity
9538;BME280;4807;48.024;11.726;2023-02-16T00:00:46;95981.97;;;-1.73;84.41
9538;BME280;4807;48.024;11.726;2023-02-16T00:03:56;95973.72;;;-1.80;84.23
9538;BME280;4807;48.024;11.726;2023-02-16T00:07:04;95975.16;;;-1.76;83.64
9538;BME280;4807;48.024;11.726;2023-02-16T00:10:12;95977.69;;;-1.74;84.34
9538;BME280;4807;48.024;11.726;2023-02-16T00:13:27;95984.78;;;-1.76;83.37
9538;BME280;4807;48.024;11.726;2023-02-16T00:16:56;95979.03;;;-1.69;83.85
9538;BME280;4807;48.024;11.726;2023-02-16T00:20:13;95984.59;;;-1.61;81.70
9538;BME280;4807;48.024;11.726;2023-02-16T00:23:21;95978.38;;;-1.85;82.59
9538;BME280;4807;48.024;11.726;2023-02-16T00:26:32;95975.44;;;-1.93;83.19
9538;BME280;4807;48.024;11.726;2023-02-16T00:29:42;95970.72;;;-2.01;83.25
9538;BME280;4807;48.024;11.726;2023-02-16T00:32:52;95983.59;;;-1.85;83.76
9538;BME280;4807;48.024;11.726;2023-02-16T00:36:00;95975.34;;;-1.92;82.99
9538;BME280;4807;48.024;11.726;2023-02-16T00:39:08;95960.09;;;-1.85;82.86
9538;BME280;4807;48.024;11.726;2023-02-16T00:42:20;95969.31;;;-1.79;83.80
9538;BME280;4807;48.024;11.726;2023-02-16T00:45:35;95969.53;;;-1.70;82.38
9538;BME280;4807;48.024;11.726;2023-02-16T00:48:43;95961.69;;;-1.82;83.50
9538;BME280;4807;48.024;11.726;2023-02-16T00:51:52;95958.56;;;-1.87;83.79
9538;BME280;4807;48.024;11.726;2023-02-16T00:55:03;95957.13;;;-1.79;83.77
9538;BME280;4807;48.024;11.726;2023-02-16T00:58:19;95940.06;;;-1.84;84.23
9538;BME280;4807;48.024;11.726;2023-02-16T01:01:33;95945.09;;;-1.69;83.27
9538;BME280;4807;48.024;11.726;2023-02-16T01:04:42;95940.31;;;-1.62;83.72
9538;BME280;4807;48.024;11.726;2023-02-16T01:07:51;95935.53;;;-1.56;81.96
9538;BME280;4807;48.024;11.726;2023-02-16T01:11:18;95929.13;;;-1.64;83.28
9538;BME280;4807;48.024;11.726;2023-02-16T01:14:27;95924.84;;;-1.65;83.55
9538;BME280;4807;48.024;11.726;2023-02-16T01:17:38;95918.78;;;-1.53;82.66
9538;BME280;4807;48.024;11.726;2023-02-16T01:20:47;95921.09;;;-1.48;82.83
9538;BME280;4807;48.024;11.726;2023-02-16T01:23:55;95919.44;;;-1.49;82.81
9538;BME280;4807;48.024;11.726;2023-02-16T01:27:03;95911.09;;;-1.55;83.58
9538;BME280;4807;48.024;11.726;2023-02-16T01:30:15;95904.78;;;-1.52;82.89
9538;BME280;4807;48.024;11.726;2023-02-16T01:33:25;95909.31;;;-1.54;83.09
9538;BME280;4807;48.024;11.726;2023-02-16T01:36:37;95904.38;;;-1.59;83.44
9538;BME280;4807;48.024;11.726;2023-02-16T01:39:46;95908.56;;;-1.56;83.74
9538;BME280;4807;48.024;11.726;2023-02-16T01:43:01;95912.13;;;-1.57;82.09
9538;BME280;4807;48.024;11.726;2023-02-16T01:46:18;95905.22;;;-1.45;81.45
9538;BME280;4807;48.024;11.726;2023-02-16T01:49:29;95909.41;;;-1.56;81.53
9538;BME280;4807;48.024;11.726;2023-02-16T01:52:41;95911.47;;;-1.73;81.45
9538;BME280;4807;48.024;11.726;2023-02-16T01:55:55;95910.84;;;-1.77;82.00
9538;BME280;4807;48.024;11.726;2023-02-16T01:59:15;95907.09;;;-1.60;81.33
9538;BME280;4807;48.024;11.726;2023-02-16T02:02:33;95921.50;;;-1.67;80.84
9538;BME280;4807;48.024;11.726;2023-02-16T02:05:44;95911.06;;;-1.80;80.76
9538;BME280;4807;48.024;11.726;2023-02-16T02:09:01;95922.19;;;-1.90;82.03
9538;BME280;4807;48.024;11.726;2023-02-16T02:12:22;95905.69;;;-2.04;82.75
9538;BME280;4807;48.024;11.726;2023-02-16T02:15:35;95905.09;;;-1.82;81.21
9538;BME280;4807;48.024;11.726;2023-02-16T02:18:44;95914.50;;;-1.79;81.22
9538;BME280;4807;48.024;11.726;2023-02-16T02:22:24;95915.84;;;-1.86;80.50
9538;BME280;4807;48.024;11.726;2023-02-16T02:26:51;95921.69;;;-1.96;81.36
9538;BME280;4807;48.024;11.726;2023-02-16T02:30:26;95911.91;;;-2.19;81.97
9538;BME280;4807;48.024;11.726;2023-02-16T02:33:53;95915.31;;;-2.31;82.74
9538;BME280;4807;48.024;11.726;2023-02-16T02:37:17;95917.00;;;-2.30;82.84
9538;BME280;4807;48.024;11.726;2023-02-16T02:40:40;95921.28;;;-2.29;82.42
9538;BME280;4807;48.024;11.726;2023-02-16T02:43:59;95922.53;;;-2.49;83.21
9538;BME280;4807;48.024;11.726;2023-02-16T02:47:10;95925.06;;;-2.47;82.67
9538;BME280;4807;48.024;11.726;2023-02-16T02:50:40;95920.38;;;-2.42;83.06
9538;BME280;4807;48.024;11.726;2023-02-16T02:54:17;95923.59;;;-2.51;83.01
9538;BME280;4807;48.024;11.726;2023-02-16T02:57:49;95923.78;;;-2.54;82.53
9538;BME280;4807;48.024;11.726;2023-02-16T03:01:19;95916.72;;;-2.52;83.05
9538;BME280;4807;48.024;11.726;2023-02-16T03:04:30;95919.94;;;-2.49;83.11
9538;BME280;4807;48.024;11.726;2023-02-16T03:07:41;95910.06;;;-2.44;82.96
9538;BME280;4807;48.024;11.726;2023-02-16T03:10:58;95915.00;;;-2.26;83.00
9538;BME280;4807;48.024;11.726;2023-02-16T03:14:31;95919.28;;;-2.25;82.51
9538;BME280;4807;48.024;11.726;2023-02-16T03:17:42;95915.50;;;-2.34;83.04
9538;BME280;4807;48.024;11.726;2023-02-16T03:21:10;95920.69;;;-2.20;82.44
9538;BME280;4807;48.024;11.726;2023-02-16T03:24:37;95915.56;;;-2.21;82.52
9538;BME280;4807;48.024;11.726;2023-02-16T03:28:05;95912.84;;;-2.20;82.16
9538;BME280;4807;48.024;11.726;2023-02-16T03:31:35;95917.75;;;-2.28;82.99
9538;BME280;4807;48.024;11.726;2023-02-16T03:34:46;95914.88;;;-2.38;82.80
9538;BME280;4807;48.024;11.726;2023-02-16T03:37:55;95919.06;;;-2.35;84.06
9538;BME280;4807;48.024;11.726;2023-02-16T03:41:03;95916.13;;;-2.43;83.45
9538;BME280;4807;48.024;11.726;2023-02-16T03:44:12;95916.66;;;-2.38;83.76
9538;BME280;4807;48.024;11.726;2023-02-16T03:47:20;95917.41;;;-2.36;82.86
9538;BME280;4807;48.024;11.726;2023-02-16T03:50:31;95920.19;;;-2.39;83.77
9538;BME280;4807;48.024;11.726;2023-02-16T03:53:39;95924.22;;;-2.21;82.99
9538;BME280;4807;48.024;11.726;2023-02-16T03:56:48;95929.97;;;-2.16;82.33
9538;BME280;4807;48.024;11.726;2023-02-16T03:59:56;95921.03;;;-2.12;82.46
9538;BME280;4807;48.024;11.726;2023-02-16T04:03:06;95923.50;;;-2.10;81.65
9538;BME280;4807;48.024;11.726;2023-02-16T04:06:17;95926.75;;;-2.19;83.07
9538;BME280;4807;48.024;11.726;2023-02-16T04:09:25;95918.75;;;-2.04;82.08
9538;BME280;4807;48.024;11.726;2023-02-16T04:12:33;95932.72;;;-2.05;80.73
9538;BME280;4807;48.024;11.726;2023-02-16T04:15:45;95929.38;;;-2.07;80.96
9538;BME280;4807;48.024;11.726;2023-02-16T04:18:53;95933.50;;;-2.17;80.32
9538;BME280;4807;48.024;11.726;2023-02-16T04:22:02;95938.94;;;-2.20;81.24
9538;BME280;4807;48.024;11.726;2023-02-16T04:25:12;95935.34;;;-2.32;81.68
9538;BME280;4807;48.024;11.726;2023-02-16T04:28:20;95932.47;;;-2.41;81.01
9538;BME280;4807;48.024;11.726;2023-02-16T04:31:28;95935.31;;;-2.44;82.02
9538;BME280;4807;48.024;11.726;2023-02-16T04:34:36;95939.59;;;-2.43;81.50
9538;BME280;4807;48.024;11.726;2023-02-16T04:37:46;95941.97;;;-2.40;81.96
9538;BME280;4807;48.024;11.726;2023-02-16T04:40:54;95940.41;;;-2.43;82.66
9538;BME280;4807;48.024;11.726;2023-02-16T04:44:03;95945.53;;;-2.41;82.61
9538;BME280;4807;48.024;11.726;2023-02-16T04:47:11;95936.00;;;-2.28;81.80
9538;BME280;4807;48.024;11.726;2023-02-16T04:50:19;95939.94;;;-2.35;82.38
9538;BME280;4807;48.024;11.726;2023-02-16T04:53:29;95931.94;;;-2.46;82.41
9538;BME280;4807;48.024;11.726;2023-02-16T04:56:37;95943.13;;;-2.44;82.74
9538;BME280;4807;48.024;11.726;2023-02-16T04:59:45;95929.69;;;-2.38;81.91
9538;BME280;4807;48.024;11.726;2023-02-16T05:02:53;95932.22;;;-2.37;82.85
9538;BME280;4807;48.024;11.726;2023-02-16T05:06:02;95936.00;;;-2.28;82.21
9538;BME280;4807;48.024;11.726;2023-02-16T05:09:12;95933.75;;;-2.07;81.65
9538;BME280;4807;48.024;11.726;2023-02-16T05:12:20;95934.00;;;-1.98;81.56
9538;BME280;4807;48.024;11.726;2023-02-16T05:15:51;95928.97;;;-2.01;81.86
9538;BME280;4807;48.024;11.726;2023-02-16T05:18:59;95924.06;;;-2.05;81.67
9538;BME280;4807;48.024;11.726;2023-02-16T05:22:09;95925.31;;;-2.11;81.94
9538;BME280;4807;48.024;11.726;2023-02-16T05:25:19;95934.16;;;-2.13;82.22
9538;BME280;4807;48.024;11.726;2023-02-16T05:28:27;95931.63;;;-2.15;80.88
9538;BME280;4807;48.024;11.726;2023-02-16T05:31:35;95940.16;;;-2.25;81.83
9538;BME280;4807;48.024;11.726;2023-02-16T05:34:44;95942.25;;;-2.18;80.84
9538;BME280;4807;48.024;11.726;2023-02-16T05:37:52;95936.63;;;-2.24;81.60
9538;BME280;4807;48.024;11.726;2023-02-16T05:41:01;95931.91;;;-2.32;80.80
9538;BME280;4807;48.024;11.726;2023-02-16T05:44:11;95944.94;;;-2.32;81.53
9538;BME280;4807;48.024;11.726;2023-02-16T05:47:19;95946.97;;;-2.23;81.39
9538;BME280;4807;48.024;11.726;2023-02-16T05:50:27;95950.66;;;-2.13;80.63
9538;BME280;4807;48.024;11.726;2023-02-16T05:53:38;95946.28;;;-2.12;81.03
9538;BME280;4807;48.024;11.726;2023-02-16T05:56:50;95956.81;;;-2.01;81.53
9538;BME280;4807;48.024;11.726;2023-02-16T05:59:59;95955.28;;;-2.04;81.95
9538;BME280;4807;48.024;11.726;2023-02-16T06:03:10;95961.75;;;-1.97;81.28
9538;BME280;4807;48.024;11.726;2023-02-16T06:06:19;95966.97;;;-1.97;80.66
9538;BME280;4807;48.024;11.726;2023-02-16T06:09:27;95977.69;;;-2.01;81.34
9538;BME280;4807;48.024;11.726;2023-02-16T06:12:38;95969.25;;;-2.05;80.38
9538;BME280;4807;48.024;11.726;2023-02-16T06:15:51;95978.09;;;-1.80;78.84
9538;BME280;4807;48.024;11.726;2023-02-16T06:19:00;95976.59;;;-1.97;79.39
9538;BME280;4807;48.024;11.726;2023-02-16T06:22:09;95981.91;;;-1.86;80.00
9538;BME280;4807;48.024;11.726;2023-02-16T06:25:17;95980.38;;;-1.88;80.22
9538;BME280;4807;48.024;11.726;2023-02-16T06:28:27;95982.03;;;-1.87;79.96
9538;BME280;4807;48.024;11.726;2023-02-16T06:31:35;95978.09;;;-1.80;79.39
9538;BME280;4807;48.024;11.726;2023-02-16T06:34:44;95986.13;;;-1.83;80.62
9538;BME280;4807;48.024;11.726;2023-02-16T06:37:53;95992.41;;;-1.61;78.46
9538;BME280;4807;48.024;11.726;2023-02-16T06:41:02;95993.16;;;-1.59;78.53
9538;BME280;4807;48.024;11.726;2023-02-16T06:44:15;95994.41;;;-1.64;79.66
9538;BME280;4807;48.024;11.726;2023-02-16T06:47:23;95994.00;;;-1.45;78.59
9538;BME280;4807;48.024;11.726;2023-02-16T06:50:31;95997.78;;;-1.37;79.13
9538;BME280;4807;48.024;11.726;2023-02-16T06:53:39;95998.84;;;-1.27;78.38
9538;BME280;4807;48.024;11.726;2023-02-16T06:56:47;95997.81;;;-1.11;78.72
9538;BME280;4807;48.024;11.726;2023-02-16T06:59:57;95993.44;;;-0.98;79.18
9538;BME280;4807;48.024;11.726;2023-02-16T07:03:05;95994.25;;;-0.85;78.11
9538;BME280;4807;48.024;11.726;2023-02-16T07:06:13;96002.38;;;-0.64;77.44
9538;BME280;4807;48.024;11.726;2023-02-16T07:09:22;96005.06;;;-0.41;76.91
9538;BME280;4807;48.024;11.726;2023-02-16T07:12:30;96010.03;;;-0.25;77.78
9538;BME280;4807;48.024;11.726;2023-02-16T07:15:39;96014.41;;;0.11;77.96
9538;BME280;4807;48.024;11.726;2023-02-16T07:18:48;96017.09;;;0.57;76.66
9538;BME280;4807;48.024;11.726;2023-02-16T07:21:57;96017.63;;;0.73;75.93
9538;BME280;4807;48.024;11.726;2023-02-16T07:25:06;96012.09;;;0.89;76.86
9538;BME280;4807;48.024;11.726;2023-02-16T07:28:15;96011.41;;;1.21;77.00
9538;BME280;4807;48.024;11.726;2023-02-16T07:31:25;96017.13;;;1.70;75.96
9538;BME280;4807;48.024;11.726;2023-02-16T07:34:33;96015.84;;;2.19;74.50
9538;BME280;4807;48.024;11.726;2023-02-16T07:37:42;96016.72;;;2.40;72.95
9538;BME280;4807;48.024;11.726;2023-02-16T07:40:50;96027.00;;;2.43;70.42
9538;BME280;4807;48.024;11.726;2023-02-16T07:43:58;96023.91;;;2.38;70.54
9538;BME280;4807;48.024;11.726;2023-02-16T07:47:08;96018.72;;;2.48;71.63
9538;BME280;4807;48.024;11.726;2023-02-16T07:50:16;96022.50;;;2.66;70.79
9538;BME280;4807;48.024;11.726;2023-02-16T07:53:24;96032.94;;;2.77;70.50
9538;BME280;4807;48.024;11.726;2023-02-16T07:56:34;96031.28;;;2.97;70.84
9538;BME280;4807;48.024;11.726;2023-02-16T07:59:42;96021.47;;;3.20;70.94
9538;BME280;4807;48.024;11.726;2023-02-16T08:02:52;96025.34;;;3.46;70.81
9538;BME280;4807;48.024;11.726;2023-02-16T08:06:01;96026.44;;;3.74;69.24
9538;BME280;4807;48.024;11.726;2023-02-16T08:09:09;96025.97;;;3.99;68.89
9538;BME280;4807;48.024;11.726;2023-02-16T08:12:18;96022.16;;;4.32;68.25
9538;BME280;4807;48.024;11.726;2023-02-16T08:15:27;96023.28;;;4.49;67.90
9538;BME280;4807;48.024;11.726;2023-02-16T08:18:38;96026.09;;;4.67;67.12
9538;BME280;4807;48.024;11.726;2023-02-16T08:21:47;96007.31;;;4.89;69.06
9538;BME280;4807;48.024;11.726;2023-02-16T08:24:57;96010.22;;;5.15;66.64
9538;BME280;4807;48.024;11.726;2023-02-16T08:28:06;96018.72;;;5.55;66.59
9538;BME280;4807;48.024;11.726;2023-02-16T08:31:17;96020.06;;;5.22;71.42
9538;BME280;4807;48.024;11.726;2023-02-16T08:34:29;96021.28;;;5.28;70.46
9538;BME280;4807;48.024;11.726;2023-02-16T08:37:38;96032.44;;;5.68;68.67
9538;BME280;4807;48.024;11.726;2023-02-16T08:40:47;96036.75;;;6.16;68.37
9538;BME280;4807;48.024;11.726;2023-02-16T08:43:56;96020.22;;;6.49;67.91
9538;BME280;4807;48.024;11.726;2023-02-16T08:47:04;96024.72;;;6.84;67.13
9538;BME280;4807;48.024;11.726;2023-02-16T08:50:13;96035.31;;;7.02;62.17
9538;BME280;4807;48.024;11.726;2023-02-16T08:53:23;96028.13;;;7.12;62.78
9538;BME280;4807;48.024;11.726;2023-02-16T08:56:34;96026.88;;;7.24;64.24
9538;BME280;4807;48.024;11.726;2023-02-16T08:59:45;96026.91;;;7.50;63.84
9538;BME280;4807;48.024;11.726;2023-02-16T09:03:15;96025.84;;;8.03;60.85
9538;BME280;4807;48.024;11.726;2023-02-16T09:06:26;96023.47;;;8.26;54.16
9538;BME280;4807;48.024;11.726;2023-02-16T09:09:35;96024.72;;;8.39;53.22
9538;BME280;4807;48.024;11.726;2023-02-16T09:12:48;96017.97;;;8.69;52.08
9538;BME280;4807;48.024;11.726;2023-02-16T09:16:02;96021.84;;;8.91;52.12
9538;BME280;4807;48.024;11.726;2023-02-16T09:19:13;96024.31;;;9.09;49.42
9538;BME280;4807;48.024;11.726;2023-02-16T09:22:23;96026.16;;;9.08;49.65
9538;BME280;4807;48.024;11.726;2023-02-16T09:25:34;96021.03;;;8.99;49.48
9538;BME280;4807;48.024;11.726;2023-02-16T09:28:43;96026.16;;;9.08;47.95
9538;BME280;4807;48.024;11.726;2023-02-16T09:31:53;96022.34;;;9.11;48.79
9538;BME280;4807;48.024;11.726;2023-02-16T09:35:02;96023.16;;;9.03;47.86
9538;BME280;4807;48.024;11.726;2023-02-16T09:38:12;96029.47;;;9.10;48.64
9538;BME280;4807;48.024;11.726;2023-02-16T09:41:31;96028.00;;;9.16;47.02
9538;BME280;4807;48.024;11.726;2023-02-16T09:44:53;96028.66;;;9.26;48.26
9538;BME280;4807;48.024;11.726;2023-02-16T09:48:04;96032.81;;;9.45;47.26
9538;BME280;4807;48.024;11.726;2023-02-16T09:51:16;96027.19;;;9.32;46.33
9538;BME280;4807;48.024;11.726;2023-02-16T09:54:46;96024.81;;;9.61;47.06
9538;BME280;4807;48.024;11.726;2023-02-16T09:58:04;96021.97;;;9.71;45.84
9538;BME280;4807;48.024;11.726;2023-02-16T10:01:25;96030.25;;;9.76;46.02
9538;BME280;4807;48.024;11.726;2023-02-16T10:04:50;96026.56;;;9.93;46.75
9538;BME280;4807;48.024;11.726;2023-02-16T10:08:06;96022.22;;;10.00;46.16
9538;BME280;4807;48.024;11.726;2023-02-16T10:11:23;96025.34;;;10.12;45.56
9538;BME280;4807;48.024;11.726;2023-02-16T10:14:59;96025.94;;;10.38;46.43
9538;BME280;4807;48.024;11.726;2023-02-16T10:18:20;96030.22;;;10.47;46.32
9538;BME280;4807;48.024;11.726;2023-02-16T10:21:31;96025.38;;;10.51;45.82
9538;BME280;4807;48.024;11.726;2023-02-16T10:24:48;96021.59;;;10.45;43.95
9538;BME280;4807;48.024;11.726;2023-02-16T10:28:13;96014.41;;;10.54;43.73
9538;BME280;4807;48.024;11.726;2023-02-16T10:31:28;96017.44;;;10.43;42.51
9538;BME280;4807;48.024;11.726;2023-02-16T10:34:49;96020.81;;;10.37;42.73
9538;BME280;4807;48.024;11.726;2023-02-16T10:38:03;96021.97;;;10.65;45.10
9538;BME280;4807;48.024;11.726;2023-02-16T10:41:26;96020.59;;;10.77;42.09
9538;BME280;4807;48.024;11.726;2023-02-16T10:44:45;96010.13;;;10.98;42.35
9538;BME280;4807;48.024;11.726;2023-02-16T10:47:54;96015.56;;;11.05;42.62
9538;BME280;4807;48.024;11.726;2023-02-16T10:51:08;96018.06;;;11.06;41.22
9538;BME280;4807;48.024;11.726;2023-02-16T10:54:24;96017.44;;;10.96;42.08
9538;BME280;4807;48.024;11.726;2023-02-16T10:57:33;96010.41;;;11.03;41.48
9538;BME280;4807;48.024;11.726;2023-02-16T11:00:51;96011.25;;;11.27;39.92
9538;BME280;4807;48.024;11.726;2023-02-16T11:04:01;96004.63;;;11.37;41.39
9538;BME280;4807;48.024;11.726;2023-02-16T11:07:13;95995.66;;;11.53;39.80
9538;BME280;4807;48.024;11.726;2023-02-16T11:10:43;95988.66;;;11.52;38.49
9538;BME280;4807;48.024;11.726;2023-02-16T11:13:59;95994.81;;;11.75;39.25
9538;BME280;4807;48.024;11.726;2023-02-16T11:17:13;95988.16;;;11.71;39.19
9538;BME280;4807;48.024;11.726;2023-02-16T11:20:29;95986.31;;;11.72;39.37
9538;BME280;4807;48.024;11.726;2023-02-16T11:23:39;95980.31;;;11.70;39.69
9538;BME280;4807;48.024;11.726;2023-02-16T11:27:00;95983.53;;;11.65;39.75
9538;BME280;4807;48.024;11.726;2023-02-16T11:30:18;95976.38;;;11.51;40.05
9538;BME280;4807;48.024;11.726;2023-02-16T11:33:32;95978.13;;;11.36;40.34
9538;BME280;4807;48.024;11.726;2023-02-16T11:36:43;95975.94;;;11.25;40.74
9538;BME280;4807;48.024;11.726;2023-02-16T11:39:55;95973.03;;;11.12;39.85
9538;BME280;4807;48.024;11.726;2023-02-16T11:43:04;95969.53;;;11.11;40.49
9538;BME280;4807;48.024;11.726;2023-02-16T11:46:18;95962.09;;;11.06;39.87
9538;BME280;4807;48.024;11.726;2023-02-16T11:49:33;95952.84;;;11.17;40.47
9538;BME280;4807;48.024;11.726;2023-02-16T11:52:42;95952.22;;;11.30;40.88
9538;BME280;4807;48.024;11.726;2023-02-16T11:56:09;95945.53;;;11.34;40.63
9538;BME280;4807;48.024;11.726;2023-02-16T11:59:20;95940.81;;;11.36;39.46
9538;BME280;4807;48.024;11.726;2023-02-16T12:02:57;95943.22;;;11.31;40.40
9538;BME280;4807;48.024;11.726;2023-02-16T12:06:26;95932.22;;;11.48;40.21
9538;BME280;4807;48.024;11.726;2023-02-16T12:09:47;95924.56;;;11.60;41.37
9538;BME280;4807;48.024;11.726;2023-02-16T12:13:04;95922.03;;;11.67;40.62
9538;BME280;4807;48.024;11.726;2023-02-16T12:16:29;95918.06;;;11.77;40.42
9538;BME280;4807;48.024;11.726;2023-02-16T12:19:45;95920.19;;;11.67;39.15
9538;BME280;4807;48.024;11.726;2023-02-16T12:23:06;95919.97;;;11.69;39.54
9538;BME280;4807;48.024;11.726;2023-02-16T12:26:38;95903.53;;;11.80;38.70
9538;BME280;4807;48.024;11.726;2023-02-16T12:29:57;95905.84;;;11.83;40.06
9538;BME280;4807;48.024;11.726;2023-02-16T12:33:34;95900.19;;;11.93;38.39
9538;BME280;4807;48.024;11.726;2023-02-16T12:36:56;95901.69;;;11.95;39.91
9538;BME280;4807;48.024;11.726;2023-02-16T12:40:26;95889.91;;;11.90;38.50
9538;BME280;4807;48.024;11.726;2023-02-16T12:43:39;95893.13;;;11.85;38.44
9538;BME280;4807;48.024;11.726;2023-02-16T12:46:55;95892.84;;;11.95;37.90
9538;BME280;4807;48.024;11.726;2023-02-16T12:50:20;95886.88;;;12.07;37.90
9538;BME280;4807;48.024;11.726;2023-02-16T12:53:41;95888.84;;;12.20;36.78
9538;BME280;4807;48.024;11.726;2023-02-16T12:57:00;95880.00;;;12.19;37.44
9538;BME280;4807;48.024;11.726;2023-02-16T13:00:20;95863.28;;;12.11;37.13
9538;BME280;4807;48.024;11.726;2023-02-16T13:03:38;95864.09;;;12.11;37.45
9538;BME280;4807;48.024;11.726;2023-02-16T13:06:55;95865.91;;;12.26;35.03
9538;BME280;4807;48.024;11.726;2023-02-16T13:10:18;95864.34;;;12.16;35.63
9538;BME280;4807;48.024;11.726;2023-02-16T13:13:33;95864.34;;;12.16;36.58
9538;BME280;4807;48.024;11.726;2023-02-16T13:16:47;95860.50;;;12.19;35.90
9538;BME280;4807;48.024;11.726;2023-02-16T13:19:57;95863.16;;;12.19;36.46
9538;BME280;4807;48.024;11.726;2023-02-16T13:23:47;95859.47;;;12.20;35.63
9538;BME280;4807;48.024;11.726;2023-02-16T13:27:21;95857.81;;;12.19;35.61
9538;BME280;4807;48.024;11.726;2023-02-16T13:31:01;95855.78;;;12.21;34.81
9538;BME280;4807;48.024;11.726;2023-02-16T13:34:56;95850.63;;;12.19;34.07
9538;BME280;4807;48.024;11.726;2023-02-16T13:38:36;95856.63;;;12.21;35.39
9538;BME280;4807;48.024;11.726;2023-02-16T13:45:48;95845.19;;;12.28;34.41
9538;BME280;4807;48.024;11.726;2023-02-16T13:49:00;95846.25;;;12.33;35.12
9538;BME280;4807;48.024;11.726;2023-02-16T13:52:13;95851.22;;;12.36;34.31
9538;BME280;4807;48.024;11.726;2023-02-16T13:55:37;95839.16;;;12.40;34.46
9538;BME280;4807;48.024;11.726;2023-02-16T13:58:45;95851.03;;;12.38;34.07
9538;BME280;4807;48.024;11.726;2023-02-16T14:01:56;95849.75;;;12.34;35.14
9538;BME280;4807;48.024;11.726;2023-02-16T14:05:09;95847.72;;;12.36;35.00
9538;BME280;4807;48.024;11.726;2023-02-16T14:08:24;95856.91;;;12.48;34.85
9538;BME280;4807;48.024;11.726;2023-02-16T14:12:03;95856.00;;;12.41;33.67
9538;BME280;4807;48.024;11.726;2023-02-16T14:15:20;95844.88;;;12.37;35.73
9538;BME280;4807;48.024;11.726;2023-02-16T14:18:40;95832.22;;;12.46;34.72
9538;BME280;4807;48.024;11.726;2023-02-16T14:21:50;95835.72;;;12.46;35.60
9538;BME280;4807;48.024;11.726;2023-02-16T14:25:03;95828.72;;;12.45;34.06
9538;BME280;4807;48.024;11.726;2023-02-16T14:29:00;95833.06;;;12.46;33.21
9538;BME280;4807;48.024;11.726;2023-02-16T14:32:28;95836.75;;;12.45;34.24
9538;BME280;4807;48.024;11.726;2023-02-16T14:35:43;95842.25;;;12.44;33.97
9538;BME280;4807;48.024;11.726;2023-02-16T14:38:54;95830.75;;;12.43;33.90
9538;BME280;4807;48.024;11.726;2023-02-16T14:42:13;95827.25;;;12.43;33.85
9538;BME280;4807;48.024;11.726;2023-02-16T14:46:05;95825.81;;;12.40;35.39
9538;BME280;4807;48.024;11.726;2023-02-16T14:49:57;95826.44;;;12.42;32.36
9538;BME280;4807;48.024;11.726;2023-02-16T14:54:07;95823.81;;;12.28;33.72
9538;BME280;4807;48.024;11.726;2023-02-16T14:57:32;95838.25;;;12.33;33.51
9538;BME280;4807;48.024;11.726;2023-02-16T15:04:11;95821.56;;;12.10;34.12
9538;BME280;4807;48.024;11.726;2023-02-16T15:07:21;95827.38;;;12.13;33.26
9538;BME280;4807;48.024;11.726;2023-02-16T15:10:32;95828.53;;;11.90;33.11
9538;BME280;4807;48.024;11.726;2023-02-16T15:13:42;95829.50;;;12.03;33.76
9538;BME280;4807;48.024;11.726;2023-02-16T15:16:51;95820.97;;;12.08;32.41
9538;BME280;4807;48.024;11.726;2023-02-16T15:20:06;95818.66;;;12.05;32.57
9538;BME280;4807;48.024;11.726;2023-02-16T15:23:22;95825.66;;;12.06;32.84
9538;BME280;4807;48.024;11.726;2023-02-16T15:26:34;95824.28;;;11.95;33.20
9538;BME280;4807;48.024;11.726;2023-02-16T15:29:44;95819.63;;;11.82;32.91
9538;BME280;4807;48.024;11.726;2023-02-16T15:32:56;95818.16;;;11.65;33.51
9538;BME280;4807;48.024;11.726;2023-02-16T15:36:08;95819.38;;;11.48;35.25
9538;BME280;4807;48.024;11.726;2023-02-16T15:39:26;95825.72;;;11.47;34.27
9538;BME280;4807;48.024;11.726;2023-02-16T15:43:07;95825.53;;;11.34;34.46
9538;BME280;4807;48.024;11.726;2023-02-16T15:46:23;95824.97;;;11.24;34.73
9538;BME280;4807;48.024;11.726;2023-02-16T15:49:33;95818.16;;;11.06;34.28
9538;BME280;4807;48.024;11.726;2023-02-16T15:52:44;95825.34;;;11.06;34.76
9538;BME280;4807;48.024;11.726;2023-02-16T15:55:54;95829.47;;;10.94;34.77
9538;BME280;4807;48.024;11.726;2023-02-16T15:59:22;95829.50;;;10.71;35.20
9538;BME280;4807;48.024;11.726;2023-02-16T16:02:38;95831.38;;;10.62;36.41
9538;BME280;4807;48.024;11.726;2023-02-16T16:05:59;95826.84;;;10.48;35.74
9538;BME280;4807;48.024;11.726;2023-02-16T16:09:20;95829.06;;;10.45;35.70
9538;BME280;4807;48.024;11.726;2023-02-16T16:12:29;95830.84;;;10.29;36.96
9538;BME280;4807;48.024;11.726;2023-02-16T16:15:41;95844.13;;;9.99;37.40
9538;BME280;4807;48.024;11.726;2023-02-16T16:18:52;95834.13;;;9.78;38.42
9538;BME280;4807;48.024;11.726;2023-02-16T16:22:02;95835.53;;;9.57;38.14
9538;BME280;4807;48.024;11.726;2023-02-16T16:25:38;95841.97;;;9.32;39.42
9538;BME280;4807;48.024;11.726;2023-02-16T16:28:49;95838.19;;;9.10;39.96
9538;BME280;4807;48.024;11.726;2023-02-16T16:31:59;95838.06;;;8.96;40.63
9538;BME280;4807;48.024;11.726;2023-02-16T16:35:19;95835.75;;;8.93;41.54
9538;BME280;4807;48.024;11.726;2023-02-16T16:38:33;95847.75;;;8.64;41.22
9538;BME280;4807;48.024;11.726;2023-02-16T16:45:34;95843.91;;;8.26;42.38
9538;BME280;4807;48.024;11.726;2023-02-16T16:48:46;95854.00;;;8.23;42.59
9538;BME280;4807;48.024;11.726;2023-02-16T16:51:55;95850.00;;;8.02;42.94
9538;BME280;4807;48.024;11.726;2023-02-16T16:55:25;95854.41;;;7.78;43.42
9538;BME280;4807;48.024;11.726;2023-02-16T16:58:34;95862.50;;;7.68;43.78
9538;BME280;4807;48.024;11.726;2023-02-16T17:01:43;95868.78;;;7.67;43.58
9538;BME280;4807;48.024;11.726;2023-02-16T17:04:53;95872.31;;;7.84;42.58
9538;BME280;4807;48.024;11.726;2023-02-16T17:08:01;95871.09;;;7.62;42.86
9538;BME280;4807;48.024;11.726;2023-02-16T17:11:21;95863.13;;;7.54;43.97
9538;BME280;4807;48.024;11.726;2023-02-16T17:14:30;95871.50;;;7.41;43.77
9538;BME280;4807;48.024;11.726;2023-02-16T17:17:39;95868.31;;;7.30;44.01
9538;BME280;4807;48.024;11.726;2023-02-16T17:20:50;95873.56;;;7.21;43.94
9538;BME280;4807;48.024;11.726;2023-02-16T17:23:58;95876.38;;;7.20;44.04
9538;BME280;4807;48.024;11.726;2023-02-16T17:27:07;95872.50;;;7.14;43.76
9538;BME280;4807;48.024;11.726;2023-02-16T17:30:16;95874.50;;;7.12;43.97
9538;BME280;4807;48.024;11.726;2023-02-16T17:33:24;95877.31;;;7.11;44.49
9538;BME280;4807;48.024;11.726;2023-02-16T17:36:36;95881.03;;;7.00;44.94
9538;BME280;4807;48.024;11.726;2023-02-16T17:39:45;95877.16;;;6.86;45.33